Flight Track Log - Related Links

Times and Time Zones

All times are in EST time to prevent confusion due to time zone crossing. See the SWA554 flight status page for this flight to view local times or setup timezone preferences in your user account.

Time Position Orientation Groundspeed Altitude Reporting Facility
EST Latitude Longitude Course Direction KTS MPH feet Rate Location/Type
Sun 08:08:12 AM 29.9886 -90.2558 90° East 146 168 700  Level Houston Center
Sun 08:08:18 AM 29.9886 -90.2511 90° East 145 167 900 1,500 Climbing Houston Center
Sun 08:09:16 AM 29.9836 -90.2028 97° East 184 212 2,300 1,967 Climbing Houston Center
Sun 08:09:19 AM 29.9806 -90.1914 107° East 208 239 2,900 2,656 Climbing Houston Center
Sun 08:10:17 AM 29.9750 -90.1333 96° East 209 241 5,000 2,746 Climbing Houston Center
Sun 08:11:17 AM 29.9686 -90.0444 95° East 263 303 8,300 3,074 Climbing Houston Center
Sun 08:12:18 AM 30.0389 -89.9861 36° Northeast 317 365 11,200 3,000 Climbing Houston Center
Sun 08:13:19 AM 30.1331 -89.9383 24° Northeast 360 414 14,400 3,273 Climbing Houston Center
Sun 08:14:19 AM 30.2319 -89.8875 24° Northeast 382 440 17,800 3,174 Climbing Houston Center
Sun 08:15:20 AM 30.3450 -89.8094 31° Northeast 412 474 20,800 2,508 Climbing Houston Center
Sun 08:16:21 AM 30.4061 -89.7006 57° Northeast 434 499 22,900 2,182 Climbing Houston Center
Sun 08:17:21 AM 30.4747 -89.5783 57° Northeast 446 513 25,200 2,132 Climbing Houston Center
Sun 08:18:22 AM 30.5458 -89.4511 57° Northeast 462 532 27,200 1,785 Climbing Houston Center
Sun 08:19:22 AM 30.6200 -89.3189 57° Northeast 481 554 28,800 1,587 Climbing Houston Center
Sun 08:20:23 AM 30.6958 -89.1789 58° Northeast 505 581 30,400 1,525 Climbing Houston Center
Sun 08:21:24 AM 30.7747 -89.0369 57° Northeast 518 596 31,900 1,785 Climbing Houston Center
Sun 08:22:24 AM 30.8600 -88.8806 58° Northeast 528 608 34,000 2,132 Climbing Houston Center
Sun 08:23:25 AM 30.9389 -88.7392 57° Northeast 524 603 36,200 1,574 Climbing Houston Center
Sun 08:24:26 AM 31.0078 -88.6119 58° Northeast 512 589 37,200 1,190 Climbing Houston Center
Sun 08:25:26 AM 31.0842 -88.4714 58° Northeast 513 590 38,600 893 Climbing Houston Center
Sun 08:26:27 AM 31.1769 -88.3039 57° Northeast 514 592 39,000 197 Climbing Houston Center
Sun 08:27:28 AM 31.2481 -88.1692 58° Northeast 515 593 39,000  Level Houston Center
Sun 08:28:29 AM 31.3242 -88.0275 58° Northeast 512 589 39,000  Level Houston Center
Sun 08:29:29 AM 31.3989 -87.8869 58° Northeast 509 586 39,000  Level Houston Center
Sun 08:30:30 AM 31.4733 -87.7469 58° Northeast 507 583 39,000  Level Houston Center
Sun 08:31:31 AM 31.5481 -87.6053 58° Northeast 509 586 39,000  Level Houston Center
Sun 08:32:29 AM 31.6386 -87.4633 53° Northeast 505 581 39,000  Level Atlanta Center
Sun 08:33:29 AM 31.7236 -87.3372 52° Northeast 505 581 39,000  Level Atlanta Center
Sun 08:34:29 AM 31.7975 -87.2203 53° Northeast 498 573 39,000  Level Atlanta Center
Sun 08:35:29 AM 31.8800 -87.0886 54° Northeast 493 567 39,000  Level Atlanta Center
Sun 08:36:29 AM 31.9667 -86.9569 52° Northeast 498 573 39,000  Level Atlanta Center
Sun 08:37:29 AM 32.0533 -86.8275 52° Northeast 498 573 39,000  Level Atlanta Center
Sun 08:38:29 AM 32.1544 -86.6833 50° Northeast 503 579 39,000  Level Atlanta Center
Sun 08:39:29 AM 32.2386 -86.5508 53° Northeast 503 579 39,000  Level Atlanta Center
Sun 08:40:29 AM 32.3247 -86.4206 52° Northeast 503 579 39,000  Level Atlanta Center
Sun 08:41:29 AM 32.3983 -86.2847 57° Northeast 496 571 39,000  Level Atlanta Center
Sun 08:42:29 AM 32.4883 -86.1467 52° Northeast 501 577 39,000  Level Atlanta Center
Sun 08:43:29 AM 32.5675 -86.0253 52° Northeast 520 598 39,000  Level Atlanta Center
Sun 08:44:29 AM 32.6597 -85.8769 54° Northeast 520 598 39,000  Level Atlanta Center
Sun 08:45:29 AM 32.7450 -85.7431 53° Northeast 514 592 39,000  Level Atlanta Center
Sun 08:46:29 AM 32.8303 -85.6061 53° Northeast 508 585 39,000  Level Atlanta Center
Sun 08:47:29 AM 32.9156 -85.4742 52° Northeast 508 585 39,000  Level Atlanta Center
Sun 08:48:29 AM 33.0006 -85.3367 54° Northeast 508 585 39,000  Level Atlanta Center
Sun 08:49:30 AM 33.0769 -85.2189 52° Northeast 508 585 39,000  Level Atlanta Center
Sun 08:50:29 AM 33.1636 -85.0811 53° Northeast 501 577 39,000  Level Atlanta Center
Sun 08:51:29 AM 33.2547 -84.9306 54° Northeast 501 577 39,000  Level Atlanta Center
Sun 08:52:29 AM 33.3411 -84.7922 53° Northeast 506 582 39,000  Level Atlanta Center
Sun 08:53:29 AM 33.4253 -84.6536 54° Northeast 506 582 39,000  Level Atlanta Center
Sun 08:54:29 AM 33.5094 -84.5147 54° Northeast 511 588 39,000  Level Atlanta Center
Sun 08:55:30 AM 33.5914 -84.3731 55° Northeast 516 594 39,000  Level Atlanta Center
Sun 08:56:30 AM 33.6772 -84.2361 53° Northeast 516 594 39,000  Level Atlanta Center
Sun 08:57:29 AM 33.7650 -84.0914 54° Northeast 528 608 39,000  Level Atlanta Center
Sun 08:58:30 AM 33.8506 -83.9489 54° Northeast 528 608 39,000  Level Atlanta Center
Sun 08:59:29 AM 33.9339 -83.8058 55° Northeast 523 602 39,000  Level Atlanta Center
Sun 09:00:29 AM 34.0192 -83.6703 53° Northeast 518 596 39,000  Level Atlanta Center
Sun 09:01:29 AM 34.1022 -83.5294 55° Northeast 524 603 39,000  Level Atlanta Center
Sun 09:02:29 AM 34.1869 -83.3858 54° Northeast 524 603 39,000  Level Atlanta Center
Sun 09:03:29 AM 34.2697 -83.2419 55° Northeast 524 603 39,000  Level Atlanta Center
Sun 09:04:30 AM 34.3542 -83.1003 54° Northeast 524 603 39,000  Level Atlanta Center
Sun 09:05:29 AM 34.4386 -82.9608 54° Northeast 524 603 39,000  Level Atlanta Center
Sun 09:06:29 AM 34.5103 -82.8289 57° Northeast 524 603 39,000  Level Atlanta Center
Sun 09:07:29 AM 34.5944 -82.6839 55° Northeast 524 603 39,000  Level Atlanta Center
Sun 09:08:29 AM 34.6886 -82.5306 53° Northeast 518 596 39,000  Level Atlanta Center
Sun 09:09:29 AM 34.7725 -82.3850 55° Northeast 518 596 39,000  Level Atlanta Center
Sun 09:10:30 AM 34.8539 -82.2442 55° Northeast 518 596 39,000  Level Atlanta Center
Sun 09:11:29 AM 34.9292 -82.1183 54° Northeast 523 602 39,000  Level Atlanta Center
Sun 09:12:29 AM 35.0103 -81.9719 56° Northeast 518 596 39,000  Level Atlanta Center
Sun 09:13:30 AM 35.0892 -81.8278 56° Northeast 518 596 39,000  Level Atlanta Center
Sun 09:14:30 AM 35.1678 -81.6783 57° Northeast 518 596 39,000  Level Atlanta Center
Sun 09:15:30 AM 35.2442 -81.5314 57° Northeast 518 596 39,000  Level Atlanta Center
Sun 09:16:30 AM 35.3283 -81.3658 58° Northeast 518 596 39,000  Level Atlanta Center
Sun 09:17:30 AM 35.4061 -81.2156 58° Northeast 513 590 39,000  Level Atlanta Center
Sun 09:18:30 AM 35.4839 -81.0622 58° Northeast 518 596 39,000  Level Atlanta Center
Sun 09:19:30 AM 35.5636 -80.9139 57° Northeast 518 596 39,000  Level Atlanta Center
Sun 09:20:30 AM 35.6411 -80.7653 57° Northeast 513 590 39,000  Level Atlanta Center
Sun 09:21:30 AM 35.7164 -80.6192 58° Northeast 513 590 39,000  Level Atlanta Center
Sun 09:22:29 AM 35.7917 -80.4700 58° Northeast 513 590 39,000  Level Atlanta Center
Sun 09:23:30 AM 35.8706 -80.3256 56° Northeast 513 590 39,000  Level Atlanta Center
Sun 09:25:11 AM 35.9967 -80.0797 58° Northeast 547 629 39,000  Level Washington Center
Sun 09:26:12 AM 36.0733 -79.9300 58° Northeast 522 601 39,000  Level Washington Center
Sun 09:27:10 AM 36.1578 -79.7853 54° Northeast 515 593 39,000  Level Washington Center
Sun 09:28:11 AM 36.2378 -79.6378 56° Northeast 525 604 39,000 -541 Level Washington Center
Sun 09:29:12 AM 36.3200 -79.4897 55° Northeast 515 593 37,900 -992 Descending Washington Center
Sun 09:30:12 AM 36.3997 -79.3442 56° Northeast 510 587 37,000 -992 Descending Washington Center
Sun 09:31:13 AM 36.4814 -79.2033 54° Northeast 510 587 35,900 -1,815 Descending Washington Center
Sun 09:32:11 AM 36.5650 -79.0597 54° Northeast 505 581 33,400 -2,593 Descending Washington Center
Sun 09:33:11 AM 36.6439 -78.9183 55° Northeast 505 581 30,800 -2,164 Descending Washington Center
Sun 09:34:13 AM 36.7167 -78.7789 57° Northeast 516 594 29,000 -908 Descending Washington Center
Sun 09:35:10 AM 36.7956 -78.6369 55° Northeast 516 594 29,000 -356 Level Washington Center
Sun 09:36:11 AM 36.8656 -78.5072 56° Northeast 510 587 28,300 -934 Descending Washington Center
Sun 09:37:12 AM 36.9592 -78.3367 55° Northeast 505 581 27,100 -645 Descending Washington Center
Sun 09:38:12 AM 37.0558 -78.2153 45° Northeast 500 575 27,000 -50 Descending Washington Center
Sun 09:39:13 AM 37.1556 -78.1378 32° Northeast 472 543 27,000  Level Washington Center
Sun 09:40:11 AM 37.2700 -78.0478 32° Northeast 472 543 27,000  Level Washington Center
Sun 09:41:13 AM 37.3825 -77.9547 33° Northeast 477 549 27,000 -500 Level Washington Center
Sun 09:42:11 AM 37.4969 -77.8639 32° Northeast 482 555 26,000 -1,008 Descending Washington Center
Sun 09:43:12 AM 37.6069 -77.7756 32° Northeast 482 555 25,000 -992 Descending Washington Center
Sun 09:44:12 AM 37.7169 -77.6867 33° Northeast 476 548 24,000 -1,017 Descending Washington Center
Sun 09:45:10 AM 37.8250 -77.5978 33° Northeast 466 536 23,000 -504 Descending Washington Center
Sun 09:46:11 AM 37.9306 -77.5111 33° Northeast 456 525 23,000 -496 Level Washington Center
Sun 09:47:11 AM 38.0467 -77.4164 33° Northeast 456 525 22,000 -1,525 Descending Washington Center
Sun 09:48:13 AM 38.1481 -77.3317 33° Northeast 446 513 19,900 -2,050 Descending Washington Center
Sun 09:49:11 AM 38.2472 -77.2519 32° Northeast 434 499 17,900 -2,017 Descending Washington Center
Sun 09:50:12 AM 38.3442 -77.1694 34° Northeast 424 488 15,900 -1,884 Descending Washington Center
Sun 09:51:12 AM 38.4308 -77.0786 39° Northeast 409 471 14,100 -1,916 Descending Washington Center
Sun 09:52:11 AM 38.5114 -76.9847 42° Northeast 395 455 12,100 -1,700 Descending Washington Center
Sun 09:53:12 AM 38.5875 -76.8906 44° Northeast 379 436 10,700 -1,041 Descending Washington Center
Sun 09:54:12 AM 38.6592 -76.8014 44° Northeast 368 423 10,000 -1,000 Descending Washington Center
Sun 09:55:12 AM 38.7206 -76.7144 48° Northeast 343 395 8,700 -1,409 Descending Washington Center
Sun 09:56:24 AM 38.7667 -76.5833 66° East 323 372 6,900 -1,381 Descending Potomac TRACON
Sun 09:57:18 AM 38.8333 -76.5333 30° Northeast 304 350 5,800 -1,211 Descending Potomac TRACON
Sun 09:58:18 AM 38.9167 -76.5167 North 275 316 4,600 -1,300 Descending Potomac TRACON
Sun 09:59:18 AM 38.9833 -76.5167 360° North 271 312 3,200 -952 Descending Potomac TRACON
Sun 10:00:24 AM 39.0667 -76.5167 360° North 232 267 2,600 -524 Descending Potomac TRACON
Sun 10:01:24 AM 39.1167 -76.5333 346° North 212 244 2,100 -500 Descending Potomac TRACON
Sun 10:02:24 AM 39.1500 -76.5667 322° Northwest 151 174 1,600 -600 Descending Potomac TRACON
Sun 10:03:24 AM 39.1667 -76.6167 293° West 121 139 900 -700 Descending Potomac TRACON
Sun 10:05:00 AM 39.1667 -76.6667 339° North  Level FlightAware Approximate
Sun 10:12:00 AM 39.1754 -76.6683 339° North  Level Estimated
Sun 10:13:00 AM 39.1754 -76.6683 339° North  Level Estimated

Login

Don't have an account? Register now (free) for customized features, flight alerts, and more!